createdAt,value
2022-10-28T00:00:00.546Z,89
2022-10-28T00:05:07.551Z,88.5
2022-10-28T00:10:14.505Z,88
2022-10-28T00:15:21.446Z,88
2022-10-28T00:20:28.396Z,88
2022-10-28T00:25:35.393Z,87.5
2022-10-28T00:30:42.356Z,88
2022-10-28T00:35:49.286Z,87
2022-10-28T00:40:56.366Z,87
2022-10-28T00:46:03.476Z,88
2022-10-28T00:51:10.577Z,88
2022-10-28T00:56:17.707Z,88
2022-10-28T01:01:24.809Z,88.5
2022-10-28T01:06:31.927Z,88.5
2022-10-28T01:11:39.025Z,88.5
2022-10-28T01:16:46.133Z,88.5
2022-10-28T01:21:53.233Z,88
2022-10-28T01:27:00.359Z,88.5
2022-10-28T01:32:07.490Z,88.5
2022-10-28T01:37:14.649Z,88
2022-10-28T01:42:21.797Z,89
2022-10-28T01:47:29.206Z,88.5
2022-10-28T01:52:36.576Z,89
2022-10-28T01:57:43.925Z,89
2022-10-28T02:02:51.303Z,89.5
2022-10-28T02:07:58.683Z,89
2022-10-28T02:13:06.119Z,88.5
2022-10-28T02:18:13.570Z,89.5
2022-10-28T02:23:20.935Z,88.5
2022-10-28T02:28:28.308Z,88.5
2022-10-28T02:33:35.731Z,88.5
2022-10-28T02:38:43.072Z,87.5
2022-10-28T02:43:50.458Z,88.5
2022-10-28T02:48:57.835Z,88.5
2022-10-28T02:54:05.874Z,88.5
2022-10-28T02:59:13.871Z,89
2022-10-28T03:04:21.872Z,88.5
2022-10-28T03:09:29.869Z,88.5
2022-10-28T03:14:37.906Z,89
2022-10-28T03:19:45.911Z,89
2022-10-28T03:24:52.449Z,89
2022-10-28T03:29:59.403Z,88.5
2022-10-28T03:35:06.354Z,89
2022-10-28T03:40:13.297Z,88.5
2022-10-28T03:45:20.233Z,88.5
2022-10-28T03:50:27.188Z,90
2022-10-28T03:55:34.141Z,89.5
2022-10-28T04:00:41.099Z,90.5
2022-10-28T04:05:48.029Z,92
2022-10-28T04:10:54.982Z,92.5
2022-10-28T04:16:01.985Z,91.5
2022-10-28T04:21:08.919Z,91
2022-10-28T04:26:15.927Z,91
2022-10-28T04:31:22.912Z,92
2022-10-28T04:36:29.887Z,92.5
2022-10-28T04:41:36.866Z,92
2022-10-28T04:46:43.919Z,92
2022-10-28T04:51:50.877Z,92
2022-10-28T04:56:57.840Z,91.5
2022-10-28T05:02:04.807Z,91
2022-10-28T05:07:11.792Z,92
2022-10-28T05:12:18.753Z,91
2022-10-28T05:17:25.754Z,91.5
2022-10-28T05:22:32.710Z,91.5
2022-10-28T05:27:39.616Z,91.5
2022-10-28T05:32:46.629Z,92.5
2022-10-28T05:37:53.571Z,92
2022-10-28T05:43:00.595Z,91.5
2022-10-28T05:48:07.593Z,91.5
2022-10-28T05:53:14.569Z,91
2022-10-28T05:58:21.588Z,91
2022-10-28T06:03:28.591Z,90.5
2022-10-28T06:08:35.592Z,91.5
2022-10-28T06:13:41.070Z,92
2022-10-28T06:18:48.060Z,92
2022-10-28T06:23:55.085Z,92
2022-10-28T06:29:02.139Z,90.5
2022-10-28T06:34:09.149Z,91
2022-10-28T06:39:16.305Z,90
2022-10-28T06:44:23.411Z,89
2022-10-28T06:49:32.103Z,89
2022-10-28T06:54:39.176Z,88.5
2022-10-28T06:59:46.305Z,89
2022-10-28T07:04:53.439Z,88
2022-10-28T07:10:00.511Z,86
2022-10-28T07:15:07.597Z,82.5
2022-10-28T07:20:14.637Z,82.5
2022-10-28T07:25:21.681Z,84.5
2022-10-28T07:30:28.673Z,84
2022-10-28T07:35:35.651Z,84.5
2022-10-28T07:40:42.656Z,85.5
2022-10-28T07:45:49.881Z,80.5
2022-10-28T07:50:57.091Z,81.5
2022-10-28T07:56:04.294Z,83
2022-10-28T08:01:11.553Z,79.5
2022-10-28T08:06:18.784Z,75
2022-10-28T08:11:25.845Z,73.5
2022-10-28T08:16:32.985Z,71
2022-10-28T08:21:40.047Z,68.5
2022-10-28T08:26:47.159Z,67.5
2022-10-28T08:31:54.259Z,68
2022-10-28T08:37:01.352Z,67
2022-10-28T08:42:08.403Z,67
2022-10-28T08:47:15.499Z,65.5
2022-10-28T08:52:23.179Z,67.5
2022-10-28T08:57:29.407Z,66
2022-10-28T09:02:36.009Z,66
2022-10-28T09:07:42.610Z,62
2022-10-28T09:12:49.182Z,64.5
2022-10-28T09:17:55.729Z,61
2022-10-28T09:23:02.244Z,66
2022-10-28T09:28:08.743Z,66.5
2022-10-28T09:33:15.307Z,65.5
2022-10-28T09:38:21.727Z,61.5
2022-10-28T09:43:28.212Z,57.5
2022-10-28T09:48:34.675Z,58.5
2022-10-28T09:53:41.129Z,61.5
2022-10-28T09:58:47.609Z,63
2022-10-28T10:03:54.141Z,63
2022-10-28T10:09:00.572Z,59.5
2022-10-28T10:14:07.015Z,60.5
2022-10-28T10:19:13.548Z,58
2022-10-28T10:24:20.029Z,58
2022-10-28T10:29:26.565Z,59
2022-10-28T10:34:32.932Z,56.5
2022-10-28T10:39:39.409Z,56
2022-10-28T10:44:45.887Z,56
2022-10-28T10:49:52.321Z,55
2022-10-28T10:54:58.740Z,56
2022-10-28T11:00:05.245Z,57.5
2022-10-28T11:05:11.645Z,58.5
2022-10-28T11:10:18.117Z,56
2022-10-28T11:15:24.621Z,60
2022-10-28T11:20:31.128Z,62.5
2022-10-28T11:25:37.679Z,63.5
2022-10-28T11:30:44.212Z,59
2022-10-28T11:35:50.742Z,56
2022-10-28T11:40:57.253Z,59
2022-10-28T11:46:03.767Z,61
2022-10-28T11:51:10.293Z,54
2022-10-28T11:56:16.780Z,53
2022-10-28T12:01:23.279Z,53.5
2022-10-28T12:06:29.742Z,52
2022-10-28T12:11:36.292Z,51
2022-10-28T12:16:42.861Z,51
2022-10-28T12:21:49.378Z,50
2022-10-28T12:26:55.986Z,54.5
2022-10-28T12:32:02.457Z,56.5
2022-10-28T12:37:08.957Z,53.5
2022-10-28T12:42:15.545Z,55.5
2022-10-28T12:47:22.180Z,55
2022-10-28T12:52:28.692Z,56
2022-10-28T12:57:35.298Z,54
2022-10-28T13:02:41.927Z,57
2022-10-28T13:07:48.497Z,57
2022-10-28T13:12:55.116Z,56
2022-10-28T13:18:01.931Z,58.5
2022-10-28T13:23:08.727Z,57.5
2022-10-28T13:28:15.576Z,56.5
2022-10-28T13:33:22.397Z,58.5
2022-10-28T13:38:29.241Z,61
2022-10-28T13:43:36.056Z,57.5
2022-10-28T13:48:42.889Z,59.5
2022-10-28T13:53:49.758Z,59
2022-10-28T13:58:56.624Z,59
2022-10-28T14:04:03.489Z,59.5
2022-10-28T14:09:10.337Z,62
2022-10-28T14:14:17.257Z,63
2022-10-28T14:19:24.177Z,64.5
2022-10-28T14:24:31.739Z,64.5
2022-10-28T14:29:37.922Z,65
2022-10-28T14:34:44.481Z,65.5
2022-10-28T14:39:51.085Z,67.5
2022-10-28T14:44:57.646Z,67
2022-10-28T14:50:04.257Z,68
2022-10-28T14:55:10.884Z,69
2022-10-28T15:00:17.565Z,69.5
2022-10-28T15:05:24.238Z,70.5
2022-10-28T15:10:30.894Z,70
2022-10-28T15:15:37.559Z,70
2022-10-28T15:20:44.281Z,70.5
2022-10-28T15:25:50.982Z,71
2022-10-28T15:30:57.691Z,71.5
2022-10-28T15:36:04.420Z,71.5
2022-10-28T15:41:11.137Z,72.5
2022-10-28T15:46:17.891Z,72.5
2022-10-28T15:51:24.569Z,72
2022-10-28T15:56:31.319Z,72.5
2022-10-28T16:01:38.042Z,73.5
2022-10-28T16:06:44.795Z,73.5
2022-10-28T16:11:51.562Z,73
2022-10-28T16:16:58.307Z,73.5
2022-10-28T16:22:05.007Z,74
2022-10-28T16:27:11.878Z,74.5
2022-10-28T16:32:18.655Z,75
2022-10-28T16:37:25.616Z,75.5
2022-10-28T16:42:32.621Z,75
2022-10-28T16:47:39.628Z,75.5
2022-10-28T16:52:46.580Z,74.5
2022-10-28T16:57:53.612Z,74.5
2022-10-28T17:03:00.577Z,74.5
2022-10-28T17:08:07.566Z,74.5
2022-10-28T17:13:14.609Z,74
2022-10-28T17:18:21.578Z,73
2022-10-28T17:23:28.562Z,74
2022-10-28T17:28:35.565Z,73.5
2022-10-28T17:33:42.543Z,74
2022-10-28T17:38:49.488Z,73.5
2022-10-28T17:43:56.706Z,72.5
2022-10-28T17:49:03.956Z,73
2022-10-28T17:54:11.137Z,73.5
2022-10-28T17:59:18.319Z,74
2022-10-28T18:04:25.563Z,73
2022-10-28T18:09:32.720Z,73.5
2022-10-28T18:14:40.004Z,73
2022-10-28T18:19:47.149Z,73
2022-10-28T18:24:54.282Z,73
2022-10-28T18:30:01.414Z,72.5
2022-10-28T18:35:08.601Z,73
2022-10-28T18:40:15.809Z,71.5
2022-10-28T18:45:23.061Z,72
2022-10-28T18:50:30.820Z,72
2022-10-28T18:55:37.305Z,73
2022-10-28T19:00:44.120Z,73
2022-10-28T19:05:50.953Z,73
2022-10-28T19:10:57.761Z,73
2022-10-28T19:16:04.683Z,73.5
2022-10-28T19:21:11.404Z,73
2022-10-28T19:26:18.260Z,73
2022-10-28T19:31:25.124Z,72.5
2022-10-28T19:36:32.015Z,73
2022-10-28T19:41:38.888Z,73
2022-10-28T19:46:45.663Z,73
2022-10-28T19:51:52.485Z,72.5
2022-10-28T19:56:59.346Z,73
2022-10-28T20:02:06.111Z,73
2022-10-28T20:07:12.974Z,73.5
2022-10-28T20:12:19.806Z,73.5
2022-10-28T20:17:26.607Z,73.5
2022-10-28T20:22:33.449Z,74
2022-10-28T20:27:40.298Z,73.5
2022-10-28T20:32:47.166Z,74
2022-10-28T20:37:54.062Z,74.5
2022-10-28T20:43:01.009Z,73.5
2022-10-28T20:48:07.889Z,74
2022-10-28T20:53:14.731Z,75
2022-10-28T20:58:21.604Z,74.5
2022-10-28T21:03:28.609Z,74.5
2022-10-28T21:08:35.610Z,74
2022-10-28T21:13:42.624Z,74.5
2022-10-28T21:18:49.653Z,74.5
2022-10-28T21:23:56.655Z,72.5
2022-10-28T21:29:03.764Z,71.5
2022-10-28T21:34:10.800Z,71
2022-10-28T21:39:17.806Z,70
2022-10-28T21:44:24.821Z,70.5
2022-10-28T21:49:31.828Z,68
2022-10-28T21:54:38.818Z,68
2022-10-28T21:59:45.890Z,68
2022-10-28T22:04:52.892Z,68
2022-10-28T22:10:00.182Z,68.5
2022-10-28T22:15:07.394Z,68
2022-10-28T22:20:14.606Z,68.5
2022-10-28T22:25:21.842Z,69
2022-10-28T22:30:29.015Z,70.5
2022-10-28T22:35:36.241Z,70.5
2022-10-28T22:40:43.417Z,70
2022-10-28T22:45:50.616Z,70
2022-10-28T22:50:57.881Z,69.5
2022-10-28T22:56:05.137Z,69.5
2022-10-28T23:01:12.405Z,71
2022-10-28T23:06:19.687Z,71
2022-10-28T23:11:26.930Z,72
2022-10-28T23:16:34.762Z,72.5
2022-10-28T23:21:41.245Z,73.5
2022-10-28T23:26:48.148Z,74.5
2022-10-28T23:31:54.979Z,74.5
2022-10-28T23:37:01.886Z,75
2022-10-28T23:42:08.845Z,76
2022-10-28T23:47:15.674Z,76
2022-10-28T23:52:22.579Z,75.5
2022-10-28T23:57:29.510Z,75.5
